Ridgway, CO

8:27 PM MDT on April 18, 2015 (GMT -0600)
RidgwayLogHill | | Change Station
CLOSE
Current Station
Personal Weather Station
Location: Ridgway, CO
Elevation: 7850 ft
Nearby Weather Stations

Elev 7850 ft 38.19 °N, 107.77 °W | Updated 13 minutes ago

Overcast
Overcast
32.5 °F
Feels Like 32 °F
N
3.0
Wind Variable Wind from South
Gusts 5.0 mph

Today
High -- | Low -- °F
--% Chance of Precip.
Yesterday
High -- | Low -- °F
Precip. -- in
6:31 AM 7:49 PM
New Moon, 0% visible
Pressure 30.02 in
Visibility 10.0 miles
Clouds Few 10000 ft
Windchill 32 °F
Dew Point 31 °F
Humidity 95%
Rainfall 0.18 in
Snow Depth Not available.
UV 0 out of 12
Pollen 3.80 out of 12
Air Quality Not available.
Flu Activity Local Activity
METAR KMTJ 190153Z AUTO 13005KT 10SM FEW100 05/03 A3006 RMK AO2 SLP164 T00500028

More Conditions Fewer Conditions

Pressure 30.02 in
Visibility 10.0 miles
Clouds Few 10000 ft
Windchill 32 °F
Dew Point 31 °F
Humidity 95%
Rainfall 0.18 in
Snow Depth Not available.
UV 0 out of 12
Pollen 3.80 out of 12
Air Quality Not available.
Flu Activity Local Activity
METAR KMTJ 190153Z AUTO 13005KT 10SM FEW100 05/03 A3006 RMK AO2 SLP164 T00500028

More Conditions Fewer Conditions

10-Day Weather Forecast

Almanac

Astronomy

Apr. 18, 2015 Rise Set
Actual Time
Civil Twilight
Nautical Twilight
Astronomical Twilight
Moon
Length of Visible Light
Length of Day
Tomorrow will be .
, % of the Moon is Illuminated

Today's Extremes

State Highs State Lows

Community

WunderPhotos

Upload Photos

1,814,637 photos uploaded!

WunderBlogs® & News

Nearby

Air Quality

  Air Quality AQ Index Pollutant
Not available.

Snow Depth

Station Depth Elevation

Earthquake Activity

City Distance Mag. Time & Date
Minimum magnitude displayed is 2.5.

Coastal Water Temperatures

Place Temperature

Stations

Nearby Weather Stations

Station Location Temp. Windchill Dew Point Humidity Wind Precip. Elev Updated Type
                   
Winter Storm Warning
Statement as of 3:15 PM MDT on April 18, 2015

... Winter Storm Warning remains in effect until midnight MDT
tonight...

* locations include the cities of... Ridgway... Glade Park.

* Timing... occasional snow showers will continue through tonight.

* Snow accumulation... an additional 1 to 2 inches... .bringing
storm total amounts of 5 to 10 inches.

* Winds... north 5 to 10 mph with gusts up to 25 mph.

* Visibility... less than one mile at times in heavy snow.

* Impacts... roads will be slick with slush or snow over mountain
passes. Backcountry travel will be difficult.

Precautionary/preparedness actions...

A Winter Storm Warning means significant amounts of snow are
expected or occurring. Strong winds and blowing snow are also
possible. This will make travel very hazardous or impossible.